Rallye Mare e Machja 2017
Le 10,11, 12 Novembre
1 1 LEANDRI Jean-Mathieu/GORGUILO Anthony Skoda Fabia R 5 20:01,4
2 2 GORDON Jean Pierre/GORDON Fabrice Ford Fiesta R 5 20:47,0 +00:45,6 +00:45,6
3 7 LEFEBVRE Frédéric/DINI Gilbert Mitsubishi Evo 9 FA 8 21:17,1 +01:15,7 +00:30,1
4 52 RENUCCI Pierre-Paul/MAESTRONI Céline Renault Clio Rs Ragnotti N 3 21:20,9 +01:19,5 +00:03,8
5 8 GALEANI Jean-Joseph/LEONARDI Pierre-Marien Mitsubishi Evo 9 R 4 21:33,6 +01:32,2 +00:12,7
6 49 MUSELLI Jean-Philippe/MASSON Elodie Renault Clio FN 3 21:46,2 +01:44,8 +00:12,6
7 12 LANGIANI Patrick/D'ULIVO Jean-Francois Renault F2 14 21:47,6 +01:46,2 +00:01,4
8 4 PISANO Mickaël/BERTHOLLE Olivier Ford Fiesta R 5 21:49,3 +01:47,9 +00:01,7
9 40 ALERINI Paul/BARICHELLA Tony Peugeot 208 Vti R 2 21:52,0 +01:50,6 +00:02,7
10 26 ANDREUCCI Frédéric/LECA Nicolas Renault Clio 16V FA 6K 21:55,9 +01:54,5 +00:03,9
11 41 FIORI Jean-Antoine/TAVERA Julien Citroën C2 R2 R 2 22:03,4 +02:02,0 +00:07,5
12 28 VANNUCCI Louis/DE BARTOLO Fabrice Citroën Saxo S1600 FA 6K 22:09,5 +02:08,1 +00:06,1
13 50 CHASSAING Philippe/BACCHIOLELLI Jean-Baptiste Renault Clio Ragnotti FN 3 22:12,7 +02:11,3 +00:03,2
14 43 SERRA Dominique/BURESI Francois-Xavier Peugeot 208 Vti R 2 22:14,4 +02:13,0 +00:01,7
15 14 GAMBARELLI Anghjulu/CASANOVA Miguel Renault Clio F2 14 22:25,5 +02:24,1 +00:11,1
16 51 DE LA FOATA Paul/TERRONI Cédric Renault Clio Ragnotti N 3 22:25,8 +02:24,4 +00:00,3
17 29 GIORGI Fabrice/BEILL Raphaël Peugeot 106 Maxi FA 6K 22:27,4 +02:26,0 +00:01,6
18 5 RENUCCI Kathia/PAOLINI Angélique Peugeot 207 S2000 A 7S 22:51,6 +02:50,2 +00:24,2
19 57 RASIGNI Romain/JOVER Denis Renault Clio Ragnotti N 3 22:57,4 +02:56,0 +00:05,8
20 58 RENUCCI Antoine/SIMEONI Jean-Marc Renault Clio Ragnotti FN 3 22:59,8 +02:58,4 +00:02,4
21 46 BURESI Adrien/BURESI Romain Peugeot 208 R2 R 2 23:03,1 +03:01,7 +00:03,3
22 10 ROSSI Yannick/VOLPEI Baptiste Mitsubishi Lancer Evo 9 FN 4 23:08,3 +03:06,9 +00:05,2
23 34 MARIANI Anthony/HELM Vivien Peugeot 206 Xs FA 6K 23:12,8 +03:11,4 +00:04,5
24 59 MARCHETTI Michel/MAUREL Virginie Citroën Saxo Vts F2 13 23:14,2 +03:12,8 +00:01,4
25 63 APPIETTO Richard/ALTANA Patrick Peugeot 106 FA 6 23:14,9 +03:13,5 +00:00,7
26 65 LORENZONI Philippe/CATELLAGGI Julie Honda Civic Eg6 FN 2 23:27,5 +03:26,1 +00:12,6
27 54 DE MEYER Jean-Michel/FRATTI Eric Renault Clio Ragnotti N 3 23:30,3 +03:28,9 +00:02,8
28 45 BUCCI Pierre-Laurent/CAVIGLIOLI Caroline Citroën C2 R2 Max R 2 23:31,4 +03:30,0 +00:01,1
29 3 MARTINI Jean-Philippe/FIESCHI Ambroise Peugeot 208 T16 R 5 23:36,9 +03:35,5 +00:05,5
30 42 GERONIMI Dominique/GARCIA Dann Citroën C2 Vts R 2 23:36,9 +03:35,5
31 44 ANTONA Julien/MANZAGGI Nicolas Citroën C2 R2 Max R 2 23:37,2 +03:35,8 +00:00,3
32 64 VENTURI Christian/PIERAZZI Arnaud Peugeot 205 Rallye FA 5 23:44,3 +03:42,9 +00:07,1
33 32 BROQUET John/STEFANAGGI Antoine Peugeot 106 S16 A 6K 23:44,3 +03:42,9
34 33 MARCHINI Jean Paul/SIMONETTI Johanna Peugeot 206 Xs A 6K 23:47,8 +03:46,4 +00:03,5
35 68 NIVAGGIONI Jean-Toussaint/PONSOT Sébastien Citroën Saxo Vts FN 2 24:17,9 +04:16,5 +00:30,1
36 15 FILMONT Jérôme/VIGNOLI Jean-Francois Peugeot 306 S16 F2 14 24:22,2 +04:20,8 +00:04,3
37 74 PINELLI Jean-Pierre/CANEGGIANI Dylan Peugeot 205 Rallye F2 12 24:25,3 +04:23,9 +00:03,1
38 62 SALINI Laura/PERETTI Myriam Citroën Saxo FA 6 24:35,5 +04:34,1 +00:10,2
39 66 MAESTRACCI François/CASANOVA Sébastien Peugeot 106 FN 2 24:35,7 +04:34,3 +00:00,2
40 39 VITTORI Marc-Antoine/PORCU Pascal-Andre Citroën C2 A 6K 24:39,3 +04:37,9 +00:03,6
41 6 GIOVANNANGELI Jean Baptiste/SANTARELLI Coralie BMW M3 FA 8 24:40,9 +04:39,5 +00:01,6
42 22 RENUCCI Jacques-Andre/RENUCCI Daniel Peugeot 205 Gti F2 14 24:41,4 +04:40,0 +00:00,5
43 37 CASALTA Cyril/FERRACCI Nicolas Peugeot 206 FA 6K 25:12,2 +05:10,8 +00:30,8
44 35 MARTINETTI Jean-Laurent/DELCLAUD Christian Peugeot 206 Xs A 6K 25:15,2 +05:13,8 +00:03,0
45 23 ROBERT Alexandre/MILIANI Pascal Peugeot 205 F2 14 25:20,7 +05:19,3 +00:05,5
46 55 DE PERETTI Olivier/LEANDRI Romain Renault Clio Rs 2L Ragnotti N 3 25:33,1 +05:31,7 +00:12,4
47 18 CASALTA Julien/CASALTA Celena Peugeot 206 F2 14 25:36,6 +05:35,2 +00:03,5
48 61 RENUCCI Antoine/RENUCCI Anthony Peugeot 205 Rallye F2 13 25:36,9 +05:35,5 +00:00,3
49 67 CASABIANCA Jacques-Francois/PENNACCHIONI Marcel Peugeot 106 S16 FN 2 25:42,1 +05:40,7 +00:05,2
50 9 CHIARONI Pascal/BRUNELLI Anne-Laure Renault Clio Sport Max R 3 25:46,2 +05:44,8 +00:04,1
51 72 PAPON Jean-Noel/AMBROSI Céline Citroën Saxo Vts F2 12 25:50,3 +05:48,9 +00:04,1
52 76 NICOLI Gérard/GALTIERI Marie-Flore Citroën Ax Sport FN 1 25:53,4 +05:52,0 +00:03,1
53 17 CALISTRI Jean-Claude/CALISTRI Nicolas Renault 5 Gt Turbo F2 14 26:22,9 +06:21,5 +00:29,5
54 25 SALVADORI Paul-Joseph/CARRE Jessica Peugeot 205 GTI F2 14 26:54,4 +06:53,0 +00:31,5
55 36 GERONIMI Dominique-Noel/QUILICI Anthony Peugeot 106 S16 FA 6K 27:06,9 +07:05,5 +00:12,5
56 75 TROMBI Philippe/DELATTRE Judicael Peugeot 106 F2 12 27:14,8 +07:13,4 +00:07,9
57 24 ROSSINI Stefanu/ALTANA Ludovic Renault Clio F2 14 27:19,6 +07:18,2 +00:04,8
58 38 CADDEO Allan/LOUVEL Jade Peugeot 206 Xs FA 6K 27:34,3 +07:32,9 +00:14,7
59 48 PAOLI Benjamin/MOSSA Sebastien Peugeot 208 Vti R 2 28:33,3 +08:31,9 +00:59,0
60 20 MISERAZZI Fabrice/ROS Patrick Peugeot 205 F2 14 28:47,3 +08:45,9 +00:14,0
61 47 GIANNINI Eric/GIANNINI Anthony Peugeot 208 R2 R 2 43:05,1 +23:03,7 +14:17,8
Clt Equipage Voiture Gr/Cl Temps Ecart 1er Ecart préc. Catégories
Commentaires: © PatricK Soft  
(Temps forfaitaires=couleur bleue)
Classés:61

Epreuve: Groupe: Catégorie:

 
Retour
Classement après ES2-Masina - Aja 1 (14.200 km)